createdAt,value
2017-05-26T00:00:02.981Z,19.37
2017-05-26T00:00:16.370Z,19.37
2017-05-26T00:00:30.015Z,19.32
2017-05-26T00:00:43.505Z,19.34
2017-05-26T00:00:57.030Z,19.32
2017-05-26T00:01:10.430Z,19.32
2017-05-26T00:01:23.303Z,19.34
2017-05-26T00:01:36.818Z,19.42
2017-05-26T00:01:49.785Z,19.38
2017-05-26T00:02:03.380Z,19.27
2017-05-26T00:02:16.360Z,19.35
2017-05-26T00:02:29.839Z,19.25
2017-05-26T00:02:42.636Z,19.27
2017-05-26T00:02:56.071Z,19.25
2017-05-26T00:03:09.545Z,19.27
2017-05-26T00:03:23.091Z,19.2
2017-05-26T00:03:36.013Z,19.28
2017-05-26T00:03:49.009Z,19.23
2017-05-26T00:04:02.044Z,19.25
2017-05-26T00:04:13.992Z,19.25
2017-05-26T00:04:27.410Z,19.24
2017-05-26T00:04:40.391Z,19.28
2017-05-26T00:04:53.226Z,19.24
2017-05-26T00:05:05.676Z,19.23
2017-05-26T00:05:18.304Z,19.32
2017-05-26T00:05:31.674Z,19.27
2017-05-26T00:05:45.126Z,19.28
2017-05-26T00:05:58.660Z,19.28
2017-05-26T00:06:10.529Z,19.19
2017-05-26T00:06:23.945Z,19.28
2017-05-26T00:06:37.592Z,19.28
2017-05-26T00:06:51.144Z,19.28
2017-05-26T00:07:04.651Z,19.23
2017-05-26T00:07:17.101Z,19.27
2017-05-26T00:07:30.567Z,19.3
2017-05-26T00:07:44.229Z,19.19
2017-05-26T00:07:57.651Z,19.19
2017-05-26T00:08:10.675Z,19.24
2017-05-26T00:08:23.793Z,19.24
2017-05-26T00:08:37.112Z,19.25
2017-05-26T00:08:50.544Z,19.3
2017-05-26T00:09:05.438Z,19.24
2017-05-26T00:09:20.901Z,19.23
2017-05-26T00:09:34.398Z,19.27
2017-05-26T00:09:48.995Z,19.3
2017-05-26T00:10:02.459Z,19.27
2017-05-26T00:10:15.529Z,19.19
2017-05-26T00:10:29.008Z,19.28
2017-05-26T00:10:42.443Z,19.27
2017-05-26T00:10:55.379Z,19.27
2017-05-26T00:11:08.321Z,19.28
2017-05-26T00:11:21.426Z,19.25
2017-05-26T00:11:36.420Z,19.27
2017-05-26T00:11:49.828Z,19.16
2017-05-26T00:12:02.897Z,19.25
2017-05-26T00:12:15.370Z,19.28
2017-05-26T00:12:28.751Z,19.28
2017-05-26T00:12:41.941Z,19.27
2017-05-26T00:12:56.322Z,19.17
2017-05-26T00:13:09.785Z,19.2
2017-05-26T00:13:22.750Z,19.25
2017-05-26T00:13:35.745Z,19.23
2017-05-26T00:13:52.910Z,19.2
2017-05-26T00:14:06.995Z,19.25
2017-05-26T00:14:19.838Z,19.23
2017-05-26T00:14:32.299Z,19.16
2017-05-26T00:14:46.437Z,19.23
2017-05-26T00:14:59.444Z,19.24
2017-05-26T00:15:12.975Z,19.16
2017-05-26T00:15:26.602Z,19.19
2017-05-26T00:15:43.856Z,19.25
2017-05-26T00:16:08.433Z,19.23
2017-05-26T00:16:24.196Z,19.2
2017-05-26T00:16:36.581Z,19.16
2017-05-26T00:16:49.609Z,19.23
2017-05-26T00:17:02.270Z,19.23
2017-05-26T00:17:14.658Z,19.23
2017-05-26T00:17:28.155Z,19.27
2017-05-26T00:17:41.096Z,19.19
2017-05-26T00:17:53.999Z,19.17
2017-05-26T00:18:07.170Z,19.23
2017-05-26T00:18:20.172Z,19.23
2017-05-26T00:18:33.194Z,19.24
2017-05-26T00:18:47.545Z,19.2
2017-05-26T00:19:01.823Z,19.19
2017-05-26T00:19:15.212Z,19.16
2017-05-26T00:19:28.717Z,19.23
2017-05-26T00:19:42.930Z,19.19
2017-05-26T00:19:56.415Z,19.17
2017-05-26T00:20:09.320Z,19.16
2017-05-26T00:20:22.343Z,19.23
2017-05-26T00:20:37.472Z,19.17
2017-05-26T00:20:50.863Z,19.17
2017-05-26T00:21:03.819Z,19.19
2017-05-26T00:21:16.732Z,19.23
2017-05-26T00:21:30.178Z,19.23
2017-05-26T00:21:43.677Z,19.23
2017-05-26T00:21:56.647Z,19.24
2017-05-26T00:22:09.695Z,19.23
2017-05-26T00:22:22.030Z,19.23
2017-05-26T00:22:34.437Z,19.16
2017-05-26T00:22:49.035Z,19.17
2017-05-26T00:23:17.987Z,19.19
2017-05-26T00:23:30.992Z,19.17
2017-05-26T00:23:44.262Z,19.2
2017-05-26T00:23:58.284Z,19.17
2017-05-26T00:24:11.746Z,19.19
2017-05-26T00:24:27.726Z,19.13
2017-05-26T00:24:40.731Z,19.17
2017-05-26T00:24:53.600Z,19.15
2017-05-26T00:25:06.978Z,19.2
2017-05-26T00:25:20.372Z,19.17
2017-05-26T00:25:33.396Z,19.16
2017-05-26T00:25:46.847Z,19.16
2017-05-26T00:26:00.356Z,19.19
2017-05-26T00:26:56.030Z,19.16
2017-05-26T00:27:40.405Z,19.16
2017-05-26T00:27:54.108Z,19.16
2017-05-26T00:28:07.811Z,19.17
2017-05-26T00:28:21.997Z,19.12
2017-05-26T00:29:07.329Z,19.13
2017-05-26T00:29:23.533Z,19.09
2017-05-26T00:29:36.684Z,19.12
2017-05-26T00:30:13.989Z,19.16
2017-05-26T00:30:33.215Z,19.12
2017-05-26T00:30:51.593Z,19.12
2017-05-26T00:31:05.051Z,19.07
2017-05-26T00:31:24.667Z,19.13
2017-05-26T00:31:37.592Z,19.12
2017-05-26T00:31:50.511Z,19.07
2017-05-26T00:32:04.751Z,19.13
2017-05-26T00:32:18.501Z,19.07
2017-05-26T00:32:32.119Z,19.09
2017-05-26T00:32:44.421Z,18.99
2017-05-26T00:32:58.603Z,19
2017-05-26T00:33:12.564Z,18.94
2017-05-26T00:33:26.120Z,19.12
2017-05-26T00:33:39.076Z,19.06
2017-05-26T00:33:52.521Z,19.09
2017-05-26T00:34:05.414Z,19.05
2017-05-26T00:34:41.401Z,19.07
2017-05-26T00:35:03.057Z,18.99
2017-05-26T00:35:16.881Z,19.05
2017-05-26T00:35:43.866Z,18.91
2017-05-26T00:35:57.374Z,19
2017-05-26T00:36:10.455Z,18.97
2017-05-26T00:36:24.553Z,18.93
2017-05-26T00:36:41.512Z,18.91
2017-05-26T00:36:55.091Z,19.06
2017-05-26T00:37:39.194Z,18.99
2017-05-26T00:38:40.446Z,18.99
2017-05-26T00:40:03.273Z,18.86
2017-05-26T00:40:19.140Z,18.84
2017-05-26T00:40:39.969Z,18.87
2017-05-26T00:41:04.804Z,18.84
2017-05-26T00:41:29.134Z,18.89
2017-05-26T00:41:52.823Z,18.84
2017-05-26T00:42:56.346Z,18.82
2017-05-26T00:43:15.619Z,18.81
2017-05-26T00:43:30.175Z,18.79
2017-05-26T00:44:28.858Z,18.81
2017-05-26T00:45:48.731Z,18.69
2017-05-26T00:46:05.947Z,18.71
2017-05-26T00:46:57.560Z,18.78
2017-05-26T00:47:12.305Z,18.72
2017-05-26T00:47:36.585Z,18.71
2017-05-26T00:48:25.479Z,18.69
2017-05-26T00:48:39.003Z,18.65
2017-05-26T00:49:23.890Z,18.63
2017-05-26T00:49:36.786Z,18.6
2017-05-26T00:50:02.997Z,18.68
2017-05-26T00:50:40.233Z,18.57
2017-05-26T00:51:03.688Z,18.56
2017-05-26T00:51:17.121Z,18.56
2017-05-26T00:52:20.378Z,18.59
2017-05-26T00:53:55.122Z,18.57
2017-05-26T00:54:20.467Z,18.5
2017-05-26T00:54:33.975Z,18.57
2017-05-26T00:55:50.949Z,18.41
2017-05-26T00:56:56.186Z,18.41
2017-05-26T00:57:28.883Z,18.47
2017-05-26T00:58:03.737Z,18.47
2017-05-26T00:58:18.848Z,18.45
2017-05-26T00:58:35.927Z,18.44
2017-05-26T00:58:54.546Z,18.51
2017-05-26T00:59:10.231Z,18.49
2017-05-26T00:59:55.089Z,18.5
2017-05-26T01:00:08.273Z,18.51
2017-05-26T01:00:20.716Z,18.5
2017-05-26T01:00:46.676Z,18.54
2017-05-26T01:01:57.053Z,18.53
2017-05-26T01:03:20.462Z,18.54
2017-05-26T01:03:53.856Z,18.56
2017-05-26T01:04:53.354Z,18.69
2017-05-26T01:05:57.000Z,18.56
2017-05-26T01:06:12.585Z,18.57
2017-05-26T01:06:28.455Z,18.59
2017-05-26T01:09:36.333Z,18.69
2017-05-26T01:10:52.335Z,18.74
2017-05-26T01:11:36.949Z,18.69
2017-05-26T01:12:20.982Z,18.69
2017-05-26T01:13:12.064Z,18.71
2017-05-26T01:14:58.829Z,18.71
2017-05-26T01:15:37.371Z,18.71
2017-05-26T01:16:32.647Z,18.63
2017-05-26T01:34:29.805Z,18.39
2017-05-26T01:35:46.766Z,18.49
2017-05-26T01:36:07.292Z,18.42
2017-05-26T01:38:21.792Z,18.44
2017-05-26T01:38:35.851Z,18.36
2017-05-26T01:40:08.617Z,18.34
2017-05-26T01:41:24.351Z,18.38
2017-05-26T01:42:56.847Z,18.29
2017-05-26T01:44:12.482Z,18.34
2017-05-26T01:44:25.320Z,18.31
2017-05-26T01:44:41.163Z,18.36
2017-05-26T01:45:25.729Z,18.29
2017-05-26T01:46:09.726Z,18.38
2017-05-26T01:46:38.445Z,18.29
2017-05-26T01:47:59.681Z,18.32
2017-05-26T01:48:12.525Z,18.39
2017-05-26T01:48:39.281Z,18.34
2017-05-26T01:49:55.176Z,18.27
2017-05-26T01:50:11.901Z,18.29
2017-05-26T01:51:38.109Z,18.29
2017-05-26T01:51:50.458Z,18.38
2017-05-26T01:52:43.329Z,18.31
2017-05-26T01:53:34.443Z,18.31
2017-05-26T01:54:18.942Z,18.24
2017-05-26T01:54:33.785Z,18.27
2017-05-26T01:55:34.735Z,18.29
2017-05-26T01:58:06.349Z,18.26
2017-05-26T01:58:49.899Z,18.35
2017-05-26T01:59:15.866Z,18.29
2017-05-26T01:59:29.276Z,18.38
2017-05-26T02:01:03.957Z,18.38
2017-05-26T02:03:20.230Z,18.36
2017-05-26T02:06:34.253Z,18.32
2017-05-26T02:08:51.791Z,18.29
2017-05-26T02:10:01.799Z,18.26
2017-05-26T02:12:07.260Z,18.26
2017-05-26T02:15:09.251Z,18.24
2017-05-26T02:15:22.876Z,18.32
2017-05-26T02:16:30.997Z,18.34
2017-05-26T02:17:50.439Z,18.34
2017-05-26T02:19:06.102Z,18.39
2017-05-26T02:20:58.191Z,18.45
2017-05-26T02:21:55.118Z,18.49
2017-05-26T02:23:33.816Z,18.42
2017-05-26T02:24:17.370Z,18.39
2017-05-26T02:26:37.076Z,18.44
2017-05-26T02:35:36.322Z,18.29
2017-05-26T02:37:49.162Z,18.24
2017-05-26T02:39:05.088Z,18.39
2017-05-26T02:39:50.439Z,18.34
2017-05-26T02:40:21.680Z,18.36
2017-05-26T02:41:36.030Z,18.26
2017-05-26T02:41:55.975Z,18.27
2017-05-26T02:42:41.296Z,18.29
2017-05-26T02:43:25.769Z,18.34
2017-05-26T02:44:10.350Z,18.38
2017-05-26T02:44:25.952Z,18.34
2017-05-26T02:44:39.407Z,18.34
2017-05-26T02:45:23.960Z,18.34
2017-05-26T02:46:48.818Z,18.23
2017-05-26T02:47:38.381Z,18.29
2017-05-26T02:49:59.862Z,18.31
2017-05-26T02:50:50.222Z,18.31
2017-05-26T02:51:04.855Z,18.31
2017-05-26T02:51:46.572Z,18.31
2017-05-26T02:52:47.686Z,18.19
2017-05-26T02:53:03.853Z,18.23
2017-05-26T02:53:42.042Z,18.21
2017-05-26T02:55:03.182Z,18.16
2017-05-26T02:56:06.791Z,18.17
2017-05-26T02:56:56.623Z,18.17
2017-05-26T02:57:42.659Z,18.21
2017-05-26T02:58:20.904Z,18.2
2017-05-26T03:00:57.026Z,18.14
2017-05-26T03:02:19.169Z,18.13
2017-05-26T03:02:35.875Z,18.16
2017-05-26T03:02:50.009Z,18.21
2017-05-26T03:04:11.906Z,18.17
2017-05-26T03:04:29.308Z,18.21
2017-05-26T03:05:14.796Z,18.16
2017-05-26T03:05:28.525Z,18.16
2017-05-26T03:05:41.551Z,18.16
2017-05-26T03:05:55.714Z,18.17
2017-05-26T03:06:10.592Z,18.16
2017-05-26T03:06:23.566Z,18.19
2017-05-26T03:06:37.768Z,18.19
2017-05-26T03:06:53.931Z,18.14
2017-05-26T03:07:08.784Z,18.19
2017-05-26T03:07:21.720Z,18.19
2017-05-26T03:07:35.170Z,18.16
2017-05-26T03:07:48.526Z,18.21
2017-05-26T03:08:01.423Z,18.14
2017-05-26T03:08:14.896Z,18.2
2017-05-26T03:08:27.322Z,18.19
2017-05-26T03:08:39.809Z,18.16
2017-05-26T03:08:54.699Z,18.16
2017-05-26T03:09:12.010Z,18.21
2017-05-26T03:09:24.899Z,18.17
2017-05-26T03:09:40.533Z,18.19
2017-05-26T03:09:54.018Z,18.13
2017-05-26T03:10:18.512Z,18.16
2017-05-26T03:10:32.017Z,18.21
2017-05-26T03:10:45.435Z,18.19
2017-05-26T03:10:58.386Z,18.14
2017-05-26T03:11:14.039Z,18.16
2017-05-26T03:11:36.456Z,18.16
2017-05-26T03:12:20.266Z,18.17
2017-05-26T03:12:49.770Z,18.17
2017-05-26T03:13:13.947Z,18.26
2017-05-26T03:13:28.311Z,18.34
2017-05-26T03:13:48.856Z,18.31
2017-05-26T03:14:05.386Z,18.29
2017-05-26T03:14:18.527Z,18.32
2017-05-26T03:14:45.333Z,18.34
2017-05-26T03:14:58.891Z,18.31
2017-05-26T03:15:14.343Z,18.23
2017-05-26T03:15:35.038Z,18.36
2017-05-26T03:15:49.368Z,18.39
2017-05-26T03:16:26.352Z,18.42
2017-05-26T03:17:21.346Z,18.51
2017-05-26T03:17:40.791Z,18.56
2017-05-26T03:18:54.949Z,18.71
2017-05-26T03:19:12.763Z,18.76
2017-05-26T03:20:01.187Z,18.76
2017-05-26T03:20:24.876Z,18.9
2017-05-26T03:20:46.274Z,18.87
2017-05-26T03:21:09.030Z,18.9
2017-05-26T03:21:29.048Z,18.91
2017-05-26T03:22:10.596Z,19
2017-05-26T03:22:26.896Z,18.96
2017-05-26T03:22:42.337Z,18.94
2017-05-26T03:22:59.178Z,19
2017-05-26T03:23:16.326Z,18.9
2017-05-26T03:23:29.746Z,18.84
2017-05-26T03:23:45.220Z,18.9
2017-05-26T03:23:58.697Z,18.96
2017-05-26T03:24:32.872Z,18.87
2017-05-26T03:25:10.610Z,18.86
2017-05-26T03:25:24.044Z,18.91
2017-05-26T03:26:08.280Z,18.81
2017-05-26T03:26:53.191Z,18.66
2017-05-26T03:27:38.975Z,18.68
2017-05-26T03:28:01.425Z,18.63
2017-05-26T03:28:26.577Z,18.6
2017-05-26T03:28:41.301Z,18.54
2017-05-26T03:28:55.003Z,18.53
2017-05-26T03:29:24.829Z,18.57
2017-05-26T03:29:39.413Z,18.56
2017-05-26T03:29:58.043Z,18.59
2017-05-26T03:30:14.760Z,18.49
2017-05-26T03:30:44.216Z,18.45
2017-05-26T03:30:58.395Z,18.45
2017-05-26T03:31:15.283Z,18.44
2017-05-26T03:31:35.387Z,18.42
2017-05-26T03:31:48.794Z,18.44
2017-05-26T03:32:03.669Z,18.38
2017-05-26T03:32:19.273Z,18.39
2017-05-26T03:32:39.068Z,18.39
2017-05-26T03:32:52.538Z,18.36
2017-05-26T03:33:06.594Z,18.38
2017-05-26T03:33:20.118Z,18.38
2017-05-26T03:33:37.084Z,18.38
2017-05-26T03:33:50.967Z,18.36
2017-05-26T03:34:08.983Z,18.44
2017-05-26T03:34:28.084Z,18.39
2017-05-26T03:34:48.560Z,18.31
2017-05-26T03:35:13.418Z,18.29
2017-05-26T03:35:25.205Z,18.36
2017-05-26T03:35:44.397Z,18.36
2017-05-26T03:35:58.120Z,18.31
2017-05-26T03:36:11.039Z,18.32
2017-05-26T03:36:44.648Z,18.27
2017-05-26T03:36:58.218Z,18.31
2017-05-26T03:37:12.371Z,18.26
2017-05-26T03:37:29.069Z,18.26
2017-05-26T03:37:43.700Z,18.29
2017-05-26T03:37:59.601Z,18.26
2017-05-26T03:38:15.676Z,18.21
2017-05-26T03:38:29.858Z,18.26
2017-05-26T03:39:01.823Z,18.23
2017-05-26T03:39:21.338Z,18.26
2017-05-26T03:39:49.541Z,18.17
2017-05-26T03:40:28.660Z,18.29
2017-05-26T03:41:05.250Z,18.2
2017-05-26T03:41:30.409Z,18.26
2017-05-26T03:41:44.440Z,18.19
2017-05-26T03:42:03.459Z,18.19
2017-05-26T03:42:17.178Z,18.2
2017-05-26T03:42:48.847Z,18.17
2017-05-26T03:43:19.059Z,18.21
2017-05-26T03:43:32.809Z,18.2
2017-05-26T03:43:58.097Z,18.21
2017-05-26T03:44:13.394Z,18.21
2017-05-26T03:44:29.351Z,18.16
2017-05-26T03:44:44.313Z,18.16
2017-05-26T03:44:59.553Z,18.19
2017-05-26T03:45:26.005Z,18.17
2017-05-26T03:45:39.411Z,18.19
2017-05-26T03:45:54.045Z,18.19
2017-05-26T03:46:19.179Z,18.13
2017-05-26T03:46:33.425Z,18.16
2017-05-26T03:46:52.495Z,18.16
2017-05-26T03:47:12.536Z,18.13
2017-05-26T03:47:54.355Z,18.16
2017-05-26T03:48:33.282Z,18.11
2017-05-26T03:48:46.766Z,18.14
2017-05-26T03:49:04.066Z,18.13
2017-05-26T03:49:18.771Z,18.13
2017-05-26T03:49:32.312Z,18.1
2017-05-26T03:49:46.140Z,18.06
2017-05-26T03:50:00.297Z,18.03
2017-05-26T03:50:14.443Z,18.1
2017-05-26T03:50:27.347Z,18.1
2017-05-26T03:50:40.882Z,18.02
2017-05-26T03:50:57.079Z,18.08
2017-05-26T03:51:09.951Z,17.99
2017-05-26T03:51:25.463Z,18.06
2017-05-26T03:51:38.992Z,18.01
2017-05-26T03:51:53.123Z,17.99
2017-05-26T03:52:06.244Z,17.98
2017-05-26T03:52:19.622Z,17.96
2017-05-26T03:52:34.404Z,17.9
2017-05-26T03:52:47.850Z,17.98
2017-05-26T03:53:01.246Z,17.86
2017-05-26T03:53:14.871Z,17.84
2017-05-26T03:53:27.842Z,17.86
2017-05-26T03:53:43.946Z,17.77
2017-05-26T03:53:58.933Z,17.77
2017-05-26T03:54:12.549Z,17.81
2017-05-26T03:54:29.158Z,17.86
2017-05-26T03:54:42.544Z,17.77
2017-05-26T03:54:57.006Z,17.73
2017-05-26T03:55:10.488Z,17.76
2017-05-26T03:55:24.028Z,17.68
2017-05-26T03:55:36.994Z,17.76
2017-05-26T03:55:49.914Z,17.77
2017-05-26T03:56:03.356Z,17.69
2017-05-26T03:56:16.200Z,17.73
2017-05-26T03:56:29.877Z,17.69
2017-05-26T03:56:43.487Z,17.79
2017-05-26T03:56:56.922Z,17.71
2017-05-26T03:57:10.357Z,17.76
2017-05-26T03:57:23.772Z,17.73
2017-05-26T03:57:36.157Z,17.79
2017-05-26T03:57:49.157Z,17.69
2017-05-26T03:58:02.120Z,17.68
2017-05-26T03:58:15.083Z,17.66
2017-05-26T03:58:27.685Z,17.73
2017-05-26T03:58:41.811Z,17.73
2017-05-26T03:58:55.274Z,17.8
2017-05-26T03:59:08.221Z,17.68
2017-05-26T03:59:21.687Z,17.68
2017-05-26T03:59:35.224Z,17.76
2017-05-26T03:59:48.129Z,17.68
2017-05-26T04:00:00.998Z,17.63
2017-05-26T04:00:13.956Z,17.74
2017-05-26T04:00:27.438Z,17.76
2017-05-26T04:00:40.959Z,17.63
2017-05-26T04:00:54.486Z,17.65
2017-05-26T04:01:07.905Z,17.77
2017-05-26T04:01:20.812Z,17.73
2017-05-26T04:01:33.713Z,17.65
2017-05-26T04:01:46.677Z,17.73
2017-05-26T04:01:59.571Z,17.68
2017-05-26T04:02:12.053Z,17.65
2017-05-26T04:02:28.952Z,17.68
2017-05-26T04:02:41.878Z,17.68
2017-05-26T04:02:55.542Z,17.69
2017-05-26T04:03:09.007Z,17.66
2017-05-26T04:03:21.927Z,17.68
2017-05-26T04:03:35.398Z,17.74
2017-05-26T04:03:48.844Z,17.71
2017-05-26T04:04:03.040Z,17.66
2017-05-26T04:04:15.922Z,17.66
2017-05-26T04:04:29.405Z,17.79
2017-05-26T04:04:42.044Z,17.69
2017-05-26T04:04:55.556Z,17.73
2017-05-26T04:05:08.023Z,17.73
2017-05-26T04:05:21.639Z,17.74
2017-05-26T04:05:36.403Z,17.74
2017-05-26T04:05:49.809Z,17.69
2017-05-26T04:06:02.244Z,17.66
2017-05-26T04:06:16.399Z,17.71
2017-05-26T04:06:29.356Z,17.65
2017-05-26T04:06:42.993Z,17.68
2017-05-26T04:06:56.437Z,17.71
2017-05-26T04:07:08.787Z,17.66
2017-05-26T04:07:21.111Z,17.62
2017-05-26T04:07:34.553Z,17.69
2017-05-26T04:07:47.999Z,17.76
2017-05-26T04:08:00.890Z,17.71
2017-05-26T04:08:14.329Z,17.63
2017-05-26T04:08:27.177Z,17.66
2017-05-26T04:08:40.020Z,17.79
2017-05-26T04:08:53.411Z,17.65
2017-05-26T04:09:06.886Z,17.68
2017-05-26T04:09:20.429Z,17.77
2017-05-26T04:09:33.810Z,17.77
2017-05-26T04:09:46.666Z,17.63
2017-05-26T04:10:00.139Z,17.68
2017-05-26T04:10:13.547Z,17.65
2017-05-26T04:10:26.986Z,17.68
2017-05-26T04:10:40.438Z,17.68
2017-05-26T04:10:53.874Z,17.81
2017-05-26T04:11:07.308Z,17.74
2017-05-26T04:11:20.231Z,17.68
2017-05-26T04:11:33.727Z,17.74
2017-05-26T04:11:47.112Z,17.65
2017-05-26T04:12:00.547Z,17.66
2017-05-26T04:12:13.427Z,17.65
2017-05-26T04:12:26.868Z,17.66
2017-05-26T04:12:40.324Z,17.77
2017-05-26T04:12:53.268Z,17.76
2017-05-26T04:13:06.691Z,17.81
2017-05-26T04:13:20.071Z,17.65
2017-05-26T04:13:32.993Z,17.65
2017-05-26T04:13:46.434Z,17.73
2017-05-26T04:13:59.858Z,17.68
2017-05-26T04:14:13.313Z,17.79
2017-05-26T04:14:26.726Z,17.63
2017-05-26T04:14:40.185Z,17.62
2017-05-26T04:14:53.088Z,17.66
2017-05-26T04:15:05.979Z,17.69
2017-05-26T04:15:19.400Z,17.65
2017-05-26T04:15:31.786Z,17.65
2017-05-26T04:15:45.186Z,17.68
2017-05-26T04:15:58.657Z,17.68
2017-05-26T04:16:12.095Z,17.77
2017-05-26T04:16:25.567Z,17.76
2017-05-26T04:16:39.000Z,17.66
2017-05-26T04:16:51.934Z,17.81
2017-05-26T04:17:05.353Z,17.74
2017-05-26T04:17:17.679Z,17.65
2017-05-26T04:17:30.503Z,17.77
2017-05-26T04:17:43.419Z,17.65
2017-05-26T04:17:56.360Z,17.77
2017-05-26T04:18:09.820Z,17.68
2017-05-26T04:18:23.262Z,17.8
2017-05-26T04:18:36.236Z,17.65
2017-05-26T04:18:49.112Z,17.77
2017-05-26T04:19:02.017Z,17.73
2017-05-26T04:19:14.921Z,17.69
2017-05-26T04:19:27.754Z,17.69
2017-05-26T04:19:41.098Z,17.66
2017-05-26T04:19:54.519Z,17.71
2017-05-26T04:20:07.425Z,17.77
2017-05-26T04:20:20.875Z,17.76
2017-05-26T04:20:33.824Z,17.73
2017-05-26T04:20:47.235Z,17.71
2017-05-26T04:21:00.094Z,17.73
2017-05-26T04:21:12.899Z,17.73
2017-05-26T04:21:25.755Z,17.69
2017-05-26T04:21:39.193Z,17.74
2017-05-26T04:21:52.041Z,17.76
2017-05-26T04:22:05.565Z,17.76
2017-05-26T04:22:18.440Z,17.69
2017-05-26T04:22:31.957Z,17.69
2017-05-26T04:22:45.270Z,17.8
2017-05-26T04:22:58.678Z,17.8
2017-05-26T04:23:12.078Z,17.71
2017-05-26T04:23:25.024Z,17.86
2017-05-26T04:23:38.361Z,17.84
2017-05-26T04:23:51.768Z,17.74
2017-05-26T04:24:04.659Z,17.71
2017-05-26T04:24:18.047Z,17.84
2017-05-26T04:24:31.762Z,17.83
2017-05-26T04:24:45.223Z,17.77
2017-05-26T04:24:58.147Z,17.87
2017-05-26T04:25:11.106Z,17.77
2017-05-26T04:25:24.558Z,17.77
2017-05-26T04:25:38.015Z,17.83
2017-05-26T04:25:51.391Z,17.87
2017-05-26T04:26:04.784Z,17.77
2017-05-26T04:26:17.719Z,17.84
2017-05-26T04:26:31.138Z,17.76
2017-05-26T04:26:44.645Z,17.81
2017-05-26T04:26:57.488Z,17.79
2017-05-26T04:27:10.433Z,17.83
2017-05-26T04:27:23.315Z,17.84
2017-05-26T04:27:36.224Z,17.86
2017-05-26T04:27:49.062Z,17.8
2017-05-26T04:28:02.515Z,17.77
2017-05-26T04:28:15.437Z,17.76
2017-05-26T04:28:28.888Z,17.79
2017-05-26T04:28:42.366Z,17.73
2017-05-26T04:28:55.337Z,17.77
2017-05-26T04:29:08.201Z,17.73
2017-05-26T04:29:21.038Z,17.71
2017-05-26T04:29:33.966Z,17.76
2017-05-26T04:29:47.327Z,17.76
2017-05-26T04:30:00.185Z,17.69
2017-05-26T04:30:12.050Z,17.76
2017-05-26T04:30:24.910Z,17.74
2017-05-26T04:30:38.352Z,17.77
2017-05-26T04:30:51.794Z,17.71
2017-05-26T04:31:05.231Z,17.77
2017-05-26T04:31:18.063Z,17.69
2017-05-26T04:31:30.401Z,17.76
2017-05-26T04:31:43.828Z,17.68
2017-05-26T04:31:57.233Z,17.77
2017-05-26T04:32:10.141Z,17.68
2017-05-26T04:32:23.031Z,17.69
2017-05-26T04:32:35.900Z,17.74
2017-05-26T04:32:49.311Z,17.68
2017-05-26T04:33:02.196Z,17.8
2017-05-26T04:33:15.179Z,17.77
2017-05-26T04:33:28.082Z,17.69
2017-05-26T04:33:41.443Z,17.73
2017-05-26T04:33:54.858Z,17.66
2017-05-26T04:34:08.256Z,17.69
2017-05-26T04:34:20.644Z,17.69
2017-05-26T04:34:34.103Z,17.68
2017-05-26T04:34:47.578Z,17.71
2017-05-26T04:35:00.969Z,17.76
2017-05-26T04:35:14.423Z,17.8
2017-05-26T04:35:27.847Z,17.74
2017-05-26T04:35:40.685Z,17.74
2017-05-26T04:35:54.113Z,17.71
2017-05-26T04:36:06.414Z,17.74
2017-05-26T04:36:19.256Z,17.8
2017-05-26T04:36:32.132Z,17.79
2017-05-26T04:36:45.516Z,17.69
2017-05-26T04:36:58.982Z,17.79
2017-05-26T04:37:11.881Z,17.76
2017-05-26T04:37:25.263Z,17.74
2017-05-26T04:37:38.222Z,17.74
2017-05-26T04:37:50.658Z,17.69
2017-05-26T04:38:03.598Z,17.77
2017-05-26T04:38:17.061Z,17.73
2017-05-26T04:38:29.926Z,17.74
2017-05-26T04:38:43.359Z,17.73
2017-05-26T04:38:56.310Z,17.86
2017-05-26T04:39:09.726Z,17.8
2017-05-26T04:39:23.124Z,17.76
2017-05-26T04:39:36.256Z,17.79
2017-05-26T04:39:49.648Z,17.8
2017-05-26T04:40:02.005Z,17.8
2017-05-26T04:40:14.901Z,17.86
2017-05-26T04:40:28.351Z,17.83
2017-05-26T04:40:41.222Z,17.79
2017-05-26T04:40:54.083Z,17.81
2017-05-26T04:41:07.016Z,17.77
2017-05-26T04:41:20.516Z,17.84
2017-05-26T04:41:33.992Z,17.84
2017-05-26T04:41:47.353Z,17.86
2017-05-26T04:42:00.826Z,17.8
2017-05-26T04:42:14.196Z,17.81
2017-05-26T04:42:27.629Z,17.86
2017-05-26T04:42:40.473Z,17.94
2017-05-26T04:42:53.813Z,17.8
2017-05-26T04:43:07.206Z,17.79
2017-05-26T04:43:20.138Z,17.83
2017-05-26T04:43:33.087Z,17.83
2017-05-26T04:43:45.971Z,17.95
2017-05-26T04:43:59.372Z,17.92
2017-05-26T04:44:12.289Z,17.94
2017-05-26T04:44:24.679Z,17.88
2017-05-26T04:44:38.096Z,17.86
2017-05-26T04:44:51.617Z,17.98
2017-05-26T04:45:05.019Z,17.95
2017-05-26T04:45:17.933Z,17.94
2017-05-26T04:45:30.318Z,17.96
2017-05-26T04:45:43.283Z,17.96
2017-05-26T04:45:56.689Z,17.96
2017-05-26T04:46:10.144Z,17.94
2017-05-26T04:46:23.090Z,17.92
2017-05-26T04:46:35.984Z,17.98
2017-05-26T04:46:49.421Z,17.96
2017-05-26T04:47:02.303Z,17.83
2017-05-26T04:47:14.122Z,17.94
2017-05-26T04:47:27.474Z,17.94
2017-05-26T04:47:40.328Z,17.92
2017-05-26T04:47:53.738Z,17.95
2017-05-26T04:48:06.716Z,17.95
2017-05-26T04:48:20.131Z,17.94
2017-05-26T04:48:33.530Z,17.95
2017-05-26T04:48:46.394Z,17.92
2017-05-26T04:48:59.813Z,17.95
2017-05-26T04:49:13.217Z,17.92
2017-05-26T04:49:26.067Z,17.94
2017-05-26T04:49:38.986Z,17.86
2017-05-26T04:49:52.456Z,17.98
2017-05-26T04:50:05.890Z,17.92
2017-05-26T04:50:19.306Z,17.95
2017-05-26T04:50:32.730Z,17.99
2017-05-26T04:50:45.091Z,17.92
2017-05-26T04:50:58.486Z,17.95
2017-05-26T04:51:11.521Z,17.95
2017-05-26T04:51:24.451Z,17.99
2017-05-26T04:51:37.873Z,17.92
2017-05-26T04:51:51.300Z,17.88
2017-05-26T04:52:04.797Z,17.94
2017-05-26T04:52:18.197Z,17.98
2017-05-26T04:52:31.712Z,17.95
2017-05-26T04:52:44.105Z,17.96
2017-05-26T04:52:57.546Z,17.94
2017-05-26T04:53:10.497Z,17.92
2017-05-26T04:53:23.401Z,17.94
2017-05-26T04:53:36.956Z,17.98
2017-05-26T04:53:50.424Z,17.79
2017-05-26T04:54:03.357Z,17.95
2017-05-26T04:54:16.802Z,17.81
2017-05-26T04:54:29.705Z,17.8
2017-05-26T04:54:43.382Z,17.79
2017-05-26T04:54:56.751Z,17.77
2017-05-26T04:55:10.188Z,17.79
2017-05-26T04:55:23.118Z,17.84
2017-05-26T04:55:36.511Z,17.83
2017-05-26T04:55:48.884Z,17.8
2017-05-26T04:56:02.290Z,17.86
2017-05-26T04:56:15.821Z,17.8
2017-05-26T04:56:28.239Z,17.74
2017-05-26T04:56:41.612Z,17.87
2017-05-26T04:56:55.032Z,17.8
2017-05-26T04:57:08.402Z,17.76
2017-05-26T04:57:21.265Z,17.8
2017-05-26T04:57:34.756Z,17.71
2017-05-26T04:57:48.094Z,17.77
2017-05-26T04:58:01.533Z,17.69
2017-05-26T04:58:15.017Z,17.73
2017-05-26T04:58:28.371Z,17.73
2017-05-26T04:58:41.783Z,17.79
2017-05-26T04:58:55.301Z,17.73
2017-05-26T04:59:08.730Z,17.76
2017-05-26T04:59:22.281Z,17.77
2017-05-26T04:59:34.672Z,17.76
2017-05-26T04:59:48.107Z,17.77
2017-05-26T05:00:01.488Z,17.73
2017-05-26T05:00:14.415Z,17.69
2017-05-26T05:00:27.782Z,17.69
2017-05-26T05:00:41.195Z,17.71
2017-05-26T05:00:54.193Z,17.8
2017-05-26T05:01:07.110Z,17.69
2017-05-26T05:01:20.538Z,17.74
2017-05-26T05:01:32.404Z,17.73
2017-05-26T05:01:45.328Z,17.76
2017-05-26T05:01:58.734Z,17.66
2017-05-26T05:02:12.188Z,17.65
2017-05-26T05:02:24.650Z,17.76
2017-05-26T05:02:37.048Z,17.77
2017-05-26T05:02:49.937Z,17.83
2017-05-26T05:03:03.446Z,17.68
2017-05-26T05:03:16.910Z,17.66
2017-05-26T05:03:30.342Z,17.66
2017-05-26T05:03:43.768Z,17.81
2017-05-26T05:03:56.638Z,17.8
2017-05-26T05:04:10.060Z,17.71
2017-05-26T05:04:22.896Z,17.69
2017-05-26T05:04:36.252Z,17.66
2017-05-26T05:04:49.145Z,17.81
2017-05-26T05:05:02.613Z,17.76
2017-05-26T05:05:14.532Z,17.68
2017-05-26T05:05:26.942Z,17.62
2017-05-26T05:05:39.892Z,17.77
2017-05-26T05:05:53.306Z,17.69
2017-05-26T05:06:06.737Z,17.76
2017-05-26T05:06:20.187Z,17.76
2017-05-26T05:06:33.517Z,17.77
2017-05-26T05:06:46.895Z,17.73
2017-05-26T05:06:59.821Z,17.63
2017-05-26T05:07:13.307Z,17.63
2017-05-26T05:07:26.181Z,17.8
2017-05-26T05:07:39.057Z,17.62
2017-05-26T05:07:52.495Z,17.69
2017-05-26T05:08:05.343Z,17.62
2017-05-26T05:08:18.861Z,17.68
2017-05-26T05:08:31.786Z,17.74
2017-05-26T05:08:45.186Z,17.77
2017-05-26T05:08:58.052Z,17.76
2017-05-26T05:09:11.398Z,17.65